createdAt,value
2023-02-02T00:01:49.817Z,16.20
2023-02-02T00:04:25.814Z,14.90
2023-02-02T00:07:01.817Z,15.40
2023-02-02T00:09:36.920Z,14.70
2023-02-02T00:12:13.371Z,13.90
2023-02-02T00:14:48.623Z,15.30
2023-02-02T00:17:25.047Z,15.10
2023-02-02T00:20:00.596Z,14.60
2023-02-02T00:22:34.130Z,14.50
2023-02-02T00:25:09.067Z,13.80
2023-02-02T00:27:43.232Z,14.00
2023-02-02T00:30:19.187Z,12.50
2023-02-02T00:32:53.880Z,13.40
2023-02-02T00:35:27.474Z,14.70
2023-02-02T00:38:01.466Z,13.40
2023-02-02T00:40:35.134Z,14.70
2023-02-02T00:43:08.810Z,14.50
2023-02-02T00:45:42.768Z,13.40
2023-02-02T00:48:16.310Z,15.30
2023-02-02T00:50:50.308Z,15.90
2023-02-02T00:53:24.717Z,13.70
2023-02-02T00:56:00.158Z,14.00
2023-02-02T00:58:33.943Z,15.20
2023-02-02T01:01:09.872Z,13.20
2023-02-02T01:03:43.903Z,14.70
2023-02-02T01:06:18.393Z,13.80
2023-02-02T01:08:53.576Z,14.90
2023-02-02T01:11:28.018Z,14.40
2023-02-02T01:14:02.019Z,15.80
2023-02-02T01:16:37.177Z,16.20
2023-02-02T01:19:10.871Z,14.50
2023-02-02T01:21:44.954Z,14.70
2023-02-02T01:24:18.352Z,16.40
2023-02-02T01:26:52.137Z,14.50
2023-02-02T01:29:26.088Z,15.60
2023-02-02T01:32:01.508Z,15.60
2023-02-02T01:34:36.509Z,14.50
2023-02-02T01:37:09.973Z,15.40
2023-02-02T01:39:43.470Z,16.20
2023-02-02T01:42:21.941Z,16.00
2023-02-02T01:45:09.688Z,15.70
2023-02-02T01:47:45.818Z,15.50
2023-02-02T01:50:20.615Z,15.00
2023-02-02T01:52:55.601Z,15.70
2023-02-02T01:55:31.987Z,15.10
2023-02-02T01:58:08.485Z,14.40
2023-02-02T02:00:46.648Z,15.90
2023-02-02T02:03:23.348Z,16.50
2023-02-02T02:06:00.899Z,14.40
2023-02-02T02:08:36.443Z,15.70
2023-02-02T02:11:10.240Z,17.70
2023-02-02T02:14:01.540Z,18.30
2023-02-02T02:16:43.122Z,17.90
2023-02-02T02:19:58.165Z,16.80
2023-02-02T02:22:58.852Z,17.90
2023-02-02T02:26:08.355Z,18.70
2023-02-02T02:29:13.149Z,18.30
2023-02-02T02:32:09.790Z,17.20
2023-02-02T02:34:49.945Z,18.20
2023-02-02T02:37:33.700Z,18.70
2023-02-02T02:40:12.857Z,17.60
2023-02-02T02:42:50.814Z,17.90
2023-02-02T02:45:25.610Z,15.50
2023-02-02T02:48:00.011Z,16.90
2023-02-02T02:50:34.077Z,16.10
2023-02-02T02:53:09.766Z,17.20
2023-02-02T02:55:51.245Z,17.70
2023-02-02T02:58:31.899Z,16.60
2023-02-02T03:01:11.992Z,18.50
2023-02-02T03:03:55.911Z,19.00
2023-02-02T03:06:34.681Z,19.10
2023-02-02T03:09:10.105Z,19.60
2023-02-02T03:11:48.251Z,19.10
2023-02-02T03:14:21.736Z,17.20
2023-02-02T03:16:56.269Z,18.40
2023-02-02T03:19:30.625Z,19.70
2023-02-02T03:22:04.574Z,18.60
2023-02-02T03:24:38.471Z,18.70
2023-02-02T03:27:13.539Z,17.70
2023-02-02T03:29:47.303Z,20.40
2023-02-02T03:32:22.041Z,19.30
2023-02-02T03:34:55.746Z,19.80
2023-02-02T03:37:29.572Z,20.00
2023-02-02T03:40:03.074Z,19.60
2023-02-02T03:42:38.284Z,18.80
2023-02-02T03:45:14.467Z,18.60
2023-02-02T03:47:47.919Z,20.40
2023-02-02T03:50:22.879Z,18.20
2023-02-02T03:52:57.541Z,17.20
2023-02-02T03:55:34.352Z,17.10
2023-02-02T03:58:09.416Z,18.60
2023-02-02T04:00:46.230Z,18.50
2023-02-02T04:03:22.105Z,17.10
2023-02-02T04:05:55.859Z,16.90
2023-02-02T04:08:30.577Z,16.40
2023-02-02T04:11:06.043Z,16.30
2023-02-02T04:13:40.747Z,16.40
2023-02-02T04:16:15.032Z,16.20
2023-02-02T04:18:50.788Z,17.80
2023-02-02T04:21:27.206Z,17.70
2023-02-02T04:24:01.571Z,18.50
2023-02-02T04:26:38.792Z,16.80
2023-02-02T04:29:22.001Z,16.80
2023-02-02T04:31:55.964Z,18.30
2023-02-02T04:34:30.120Z,17.60
2023-02-02T04:37:03.926Z,17.50
2023-02-02T04:39:40.533Z,17.50
2023-02-02T04:42:14.694Z,17.50
2023-02-02T04:44:48.792Z,17.30
2023-02-02T04:47:24.943Z,18.00
2023-02-02T04:49:58.931Z,17.40
2023-02-02T04:52:33.362Z,18.30
2023-02-02T04:55:07.573Z,17.40
2023-02-02T04:57:41.453Z,17.70
2023-02-02T05:00:19.079Z,17.80
2023-02-02T05:02:52.959Z,17.70
2023-02-02T05:05:28.176Z,16.50
2023-02-02T05:08:02.813Z,18.30
2023-02-02T05:10:36.411Z,24.20
2023-02-02T05:13:13.005Z,23.00
2023-02-02T05:15:48.221Z,23.70
2023-02-02T05:18:25.998Z,21.30
2023-02-02T05:21:01.611Z,22.20
2023-02-02T05:23:35.073Z,22.10
2023-02-02T05:26:09.204Z,22.50
2023-02-02T05:28:43.373Z,20.10
2023-02-02T05:31:18.966Z,21.80
2023-02-02T05:33:52.664Z,21.60
2023-02-02T05:36:28.443Z,22.50
2023-02-02T05:39:02.480Z,21.30
2023-02-02T05:41:37.771Z,21.10
2023-02-02T05:44:14.479Z,20.70
2023-02-02T05:46:49.171Z,22.70
2023-02-02T05:49:23.769Z,25.50
2023-02-02T05:52:00.023Z,22.60
2023-02-02T05:54:34.909Z,20.80
2023-02-02T05:57:10.715Z,21.60
2023-02-02T05:59:45.159Z,20.80
2023-02-02T06:02:21.990Z,21.50
2023-02-02T06:04:56.748Z,21.80
2023-02-02T06:07:31.194Z,19.70
2023-02-02T06:10:07.842Z,21.00
2023-02-02T06:12:42.133Z,18.30
2023-02-02T06:15:16.796Z,20.40
2023-02-02T06:17:54.271Z,21.30
2023-02-02T06:20:28.748Z,19.40
2023-02-02T06:23:06.097Z,21.10
2023-02-02T06:25:40.764Z,21.50
2023-02-02T06:28:15.217Z,21.90
2023-02-02T06:30:49.714Z,22.10
2023-02-02T06:33:26.981Z,22.00
2023-02-02T06:36:04.755Z,19.40
2023-02-02T06:38:39.572Z,21.40
2023-02-02T06:41:14.062Z,19.50
2023-02-02T06:43:50.894Z,20.10
2023-02-02T06:46:25.338Z,19.50
2023-02-02T06:48:59.827Z,19.90
2023-02-02T06:51:34.199Z,12.70
2023-02-02T06:54:11.773Z,18.60
2023-02-02T06:56:46.357Z,18.20
2023-02-02T06:59:22.240Z,18.90
2023-02-02T07:02:00.383Z,18.30
2023-02-02T07:04:36.901Z,19.70
2023-02-02T07:07:13.296Z,18.20
2023-02-02T07:09:57.964Z,17.50
2023-02-02T07:12:38.213Z,16.60
2023-02-02T07:15:13.927Z,19.00
2023-02-02T07:17:49.502Z,18.60
2023-02-02T07:20:26.610Z,18.20
2023-02-02T07:23:03.026Z,17.30
2023-02-02T07:25:37.378Z,20.10
2023-02-02T07:28:11.764Z,18.70
2023-02-02T07:30:46.215Z,17.10
2023-02-02T07:33:21.549Z,19.50
2023-02-02T07:35:57.644Z,19.30
2023-02-02T07:38:31.906Z,21.70
2023-02-02T07:41:09.488Z,19.20
2023-02-02T07:43:44.592Z,17.70
2023-02-02T07:46:19.812Z,21.30
2023-02-02T07:48:59.639Z,22.60
2023-02-02T07:51:33.660Z,23.80
2023-02-02T07:54:13.297Z,22.80
2023-02-02T07:56:48.057Z,23.00
2023-02-02T07:59:23.611Z,21.40
2023-02-02T08:02:00.773Z,19.80
2023-02-02T08:04:44.008Z,19.50
2023-02-02T08:07:17.466Z,21.90
2023-02-02T08:09:51.469Z,19.90
2023-02-02T08:12:26.903Z,24.90
2023-02-02T08:15:00.761Z,21.50
2023-02-02T08:17:34.492Z,23.30
2023-02-02T08:20:09.869Z,21.50
2023-02-02T08:22:48.089Z,22.30
2023-02-02T08:25:22.051Z,22.20
2023-02-02T08:28:01.787Z,22.60
2023-02-02T09:23:54.232Z,25.50
2023-02-02T09:26:26.782Z,25.90
2023-02-02T09:28:59.114Z,24.00
2023-02-02T09:31:30.167Z,23.60
2023-02-02T09:47:18.211Z,16.00
2023-02-02T09:50:00.805Z,11.50
2023-02-02T10:01:00.188Z,7.50
2023-02-02T10:03:33.615Z,6.30
2023-02-02T10:25:59.346Z,4.40
2023-02-02T10:28:38.418Z,2.70
2023-02-02T14:55:01.331Z,1.50
2023-02-02T14:57:33.932Z,1.30
2023-02-02T15:00:05.948Z,0.90
2023-02-02T15:02:37.284Z,1.10
2023-02-02T15:05:46.756Z,1.10
2023-02-02T15:08:24.174Z,1.00
2023-02-02T15:11:27.500Z,1.20
2023-02-02T15:14:06.871Z,1.40
2023-02-02T15:16:38.804Z,0.90
2023-02-02T15:19:23.260Z,1.80
2023-02-02T15:21:55.014Z,2.70
2023-02-02T15:24:28.191Z,1.40
2023-02-02T15:27:00.420Z,2.10
2023-02-02T15:29:38.349Z,1.10
2023-02-02T15:32:09.986Z,1.90
2023-02-02T15:34:43.671Z,1.40
2023-02-02T15:37:16.879Z,0.90
2023-02-02T15:39:52.949Z,0.70
2023-02-02T15:42:48.174Z,1.70
2023-02-02T15:45:43.356Z,0.80
2023-02-02T15:48:29.625Z,0.30
2023-02-02T15:51:02.026Z,0.30
2023-02-02T15:53:38.433Z,1.10
2023-02-02T15:56:29.262Z,0.60
2023-02-02T15:59:01.430Z,2.40
2023-02-02T16:01:34.859Z,1.80
2023-02-02T16:04:15.562Z,1.70
2023-02-02T16:06:46.587Z,1.30
2023-02-02T16:09:23.345Z,0.90
2023-02-02T16:11:53.640Z,1.70
2023-02-02T16:14:24.495Z,2.20
2023-02-02T16:16:57.131Z,0.70
2023-02-02T16:19:28.016Z,0.70
2023-02-02T16:22:01.458Z,1.00
2023-02-02T16:24:33.597Z,1.10
2023-02-02T16:27:06.569Z,0.60
2023-02-02T16:29:37.293Z,0.70
2023-02-02T16:32:20.121Z,0.70
2023-02-02T16:34:50.455Z,1.80
2023-02-02T16:37:25.339Z,1.00
2023-02-02T16:39:57.143Z,1.40
2023-02-02T16:42:31.414Z,0.90
2023-02-02T16:45:04.777Z,0.60
2023-02-02T16:47:39.925Z,0.70
2023-02-02T16:50:35.796Z,1.20
2023-02-02T16:53:07.594Z,0.80
2023-02-02T16:55:50.137Z,1.10
2023-02-02T16:58:25.140Z,0.70
2023-02-02T17:01:19.379Z,0.80
2023-02-02T17:03:55.042Z,1.00
2023-02-02T17:06:49.959Z,0.90
2023-02-02T17:09:42.911Z,1.00
2023-02-02T17:12:33.784Z,0.80
2023-02-02T17:15:33.397Z,0.90
2023-02-02T17:18:06.967Z,1.10
2023-02-02T17:20:37.428Z,1.20
2023-02-02T17:23:27.828Z,1.90
2023-02-02T17:26:01.423Z,0.60
2023-02-02T17:28:33.855Z,1.10
2023-02-02T17:31:06.376Z,1.80
2023-02-02T17:33:37.710Z,1.40
2023-02-02T17:36:10.485Z,1.30
2023-02-02T17:38:43.479Z,1.10
2023-02-02T17:41:13.955Z,0.80
2023-02-02T17:43:44.667Z,1.40
2023-02-02T17:46:15.337Z,0.90
2023-02-02T17:48:45.978Z,1.00
2023-02-02T17:51:18.195Z,0.80
2023-02-02T17:53:50.646Z,0.60
2023-02-02T17:56:25.386Z,0.80
2023-02-02T17:58:56.285Z,0.60
2023-02-02T18:01:33.822Z,0.60
2023-02-02T18:04:04.410Z,1.40
2023-02-02T18:06:35.024Z,2.10
2023-02-02T18:09:22.272Z,1.40
2023-02-02T18:11:52.686Z,1.20
2023-02-02T18:14:26.023Z,1.50
2023-02-02T18:16:56.668Z,1.70
2023-02-02T18:19:26.958Z,0.80
2023-02-02T18:21:59.564Z,1.00
2023-02-02T18:24:30.658Z,1.20
2023-02-02T18:27:02.432Z,1.50
2023-02-02T18:29:33.091Z,0.80
2023-02-02T18:32:04.827Z,0.70
2023-02-02T18:34:36.084Z,0.70
2023-02-02T18:37:08.409Z,0.80
2023-02-02T18:39:39.028Z,0.60
2023-02-02T18:42:09.405Z,0.60
2023-02-02T18:44:40.832Z,0.60
2023-02-02T18:47:11.141Z,0.80
2023-02-02T18:49:42.101Z,0.30
2023-02-02T18:52:15.299Z,0.60
2023-02-02T18:54:47.457Z,0.40
2023-02-02T18:57:18.313Z,0.50
2023-02-02T18:59:48.547Z,0.30
2023-02-02T19:02:20.778Z,1.00
2023-02-02T19:05:08.846Z,1.50
2023-02-02T19:07:58.650Z,0.70
2023-02-02T19:10:29.270Z,1.00
2023-02-02T19:13:09.824Z,0.90
2023-02-02T19:15:47.619Z,0.70
2023-02-02T19:18:19.485Z,0.70
2023-02-02T19:20:50.430Z,0.90
2023-02-02T19:23:23.002Z,1.10
2023-02-02T19:25:55.369Z,0.60
2023-02-02T19:28:27.836Z,0.70
2023-02-02T19:30:59.799Z,0.70
2023-02-02T19:33:38.853Z,0.50
2023-02-02T19:36:13.443Z,0.70
2023-02-02T19:38:44.512Z,0.70
2023-02-02T19:41:19.951Z,0.80
2023-02-02T19:43:52.167Z,0.70
2023-02-02T19:46:29.829Z,0.60
2023-02-02T19:49:06.208Z,0.80
2023-02-02T19:51:46.672Z,0.80
2023-02-02T19:54:26.668Z,0.40
2023-02-02T19:56:58.916Z,0.40
2023-02-02T19:59:35.239Z,1.00
2023-02-02T20:02:30.550Z,0.70
2023-02-02T20:05:07.574Z,0.70
2023-02-02T20:07:38.597Z,0.80
2023-02-02T20:10:18.455Z,0.40
2023-02-02T20:12:49.920Z,0.60
2023-02-02T20:15:29.381Z,0.50
2023-02-02T20:18:01.377Z,0.90
2023-02-02T20:20:35.458Z,0.80
2023-02-02T20:23:14.795Z,0.40
2023-02-02T20:25:45.718Z,1.80
2023-02-02T20:28:28.708Z,0.60
2023-02-02T20:31:04.166Z,0.60
2023-02-02T20:33:34.638Z,0.20
2023-02-02T20:36:22.699Z,0.50
2023-02-02T20:38:56.222Z,0.50
2023-02-02T20:41:30.500Z,0.70
2023-02-02T20:44:01.302Z,0.50
2023-02-02T20:46:31.529Z,1.30
2023-02-02T20:49:03.155Z,0.70
2023-02-02T20:51:34.931Z,0.90
2023-02-02T20:54:05.664Z,0.70
2023-02-02T20:56:36.013Z,0.40
2023-02-02T20:59:10.831Z,0.50
2023-02-02T21:01:52.372Z,0.50
2023-02-02T21:04:27.390Z,0.80
2023-02-02T21:07:02.064Z,0.60
2023-02-02T21:09:45.035Z,0.70
2023-02-02T21:12:20.798Z,0.60
2023-02-02T21:14:57.715Z,0.30
2023-02-02T21:17:31.560Z,0.40
2023-02-02T21:20:06.271Z,0.50
2023-02-02T21:22:42.244Z,0.50
2023-02-02T21:25:14.969Z,0.60
2023-02-02T21:27:48.165Z,0.50
2023-02-02T21:30:19.915Z,0.80
2023-02-02T21:32:51.972Z,1.70
2023-02-02T21:35:22.332Z,0.70
2023-02-02T21:37:57.701Z,0.90
2023-02-02T21:43:15.998Z,0.60
2023-02-02T21:45:52.892Z,0.80
2023-02-02T21:48:28.329Z,0.50
2023-02-02T21:51:02.850Z,0.80
2023-02-02T21:53:39.023Z,0.50
2023-02-02T21:56:25.453Z,0.50
2023-02-02T21:58:58.959Z,0.50
2023-02-02T22:01:35.909Z,0.60
2023-02-02T22:04:16.030Z,0.60
2023-02-02T22:06:47.203Z,0.80
2023-02-02T22:09:22.031Z,0.50
2023-02-02T22:11:56.238Z,0.70
2023-02-02T22:14:40.067Z,0.30
2023-02-02T22:17:22.393Z,0.50
2023-02-02T22:19:56.666Z,0.80
2023-02-02T22:22:31.657Z,0.30
2023-02-02T22:25:06.530Z,0.50
2023-02-02T22:27:43.246Z,0.50
2023-02-02T22:30:20.064Z,0.30
2023-02-02T22:32:52.813Z,0.60
2023-02-02T22:35:25.226Z,0.50
2023-02-02T22:37:56.913Z,0.50
2023-02-02T22:40:37.075Z,0.60
2023-02-02T22:43:13.530Z,0.60
2023-02-02T22:45:54.786Z,0.20
2023-02-02T22:48:25.040Z,0.70
2023-02-02T22:50:55.854Z,0.60
2023-02-02T22:53:28.746Z,0.50
2023-02-02T22:56:00.060Z,0.50
2023-02-02T22:58:30.648Z,0.30
2023-02-02T23:01:01.448Z,0.60
2023-02-02T23:03:32.253Z,0.60
2023-02-02T23:06:02.572Z,0.50
2023-02-02T23:08:33.675Z,0.50
2023-02-02T23:11:12.205Z,0.30
2023-02-02T23:13:57.642Z,0.40
2023-02-02T23:16:34.391Z,0.50
2023-02-02T23:19:08.114Z,0.60
2023-02-02T23:21:40.843Z,0.60
2023-02-02T23:24:52.909Z,1.10
2023-02-02T23:27:23.113Z,0.40
2023-02-02T23:29:53.303Z,0.50
2023-02-02T23:32:23.864Z,0.40
2023-02-02T23:34:54.580Z,0.70
2023-02-02T23:37:24.689Z,0.60
2023-02-02T23:39:55.319Z,0.50
2023-02-02T23:42:27.143Z,0.30
2023-02-02T23:45:01.322Z,0.50
2023-02-02T23:47:34.295Z,0.30
2023-02-02T23:50:06.840Z,0.40
2023-02-02T23:52:38.996Z,0.60
2023-02-02T23:55:12.291Z,0.70
2023-02-02T23:57:42.608Z,0.40
